Time;durP1;ratioP1;P1;durP2;ratioP2;P2;SDS_P1;SDS_P2;PMS_P1;PMS_P2;Temp;Humidity;BMP_temperature;BMP_pressure;BME280_temperature;BME280_humidity;BME280_pressure;Samples;Min_cycle;Max_cycle;Signal;HPM_P1;HPM_P2
2021/09/14 00:00:59;;;;;;;10.07;7.35;;;17.10;99.90;;;;;;5056768;28;20078;-77
2021/09/14 00:03:24;;;;;;;7.80;6.75;;;17.10;99.90;;;;;;5053706;28;20051;-78
2021/09/14 00:05:50;;;;;;;8.82;6.95;;;17.10;99.90;;;;;;5052505;28;20020;-77
2021/09/14 00:08:15;;;;;;;11.68;7.65;;;17.20;99.90;;;;;;5053529;28;20021;-77
2021/09/14 00:10:41;;;;;;;6.85;6.20;;;17.20;99.90;;;;;;5052538;28;20387;-77
2021/09/14 00:13:07;;;;;;;9.18;7.38;;;17.30;99.90;;;;;;5052846;28;20017;-79
2021/09/14 00:15:33;;;;;;;8.55;7.07;;;17.30;99.90;;;;;;5053415;28;20504;-78
2021/09/14 00:17:58;;;;;;;7.30;6.70;;;17.20;99.90;;;;;;5052074;28;20412;-77
2021/09/14 00:20:24;;;;;;;8.90;6.65;;;17.20;99.90;;;;;;5052825;28;20029;-78
2021/09/14 00:22:49;;;;;;;11.45;7.13;;;17.20;99.90;;;;;;5060979;28;20045;-76
2021/09/14 00:25:15;;;;;;;6.97;6.28;;;17.10;99.90;;;;;;5071315;28;20040;-76
2021/09/14 00:27:41;;;;;;;7.43;6.72;;;17.10;99.90;;;;;;5074824;28;20029;-77
2021/09/14 00:30:07;;;;;;;9.05;6.88;;;17.00;99.90;;;;;;5070923;28;20055;-77
2021/09/14 00:32:33;;;;;;;7.93;7.13;;;17.00;99.90;;;;;;5072976;28;20025;-77
2021/09/14 00:34:58;;;;;;;9.85;7.00;;;17.00;99.90;;;;;;5078701;28;20087;-77
2021/09/14 00:37:24;;;;;;;7.57;6.50;;;17.00;99.90;;;;;;5080360;28;20029;-78
2021/09/14 00:39:49;;;;;;;7.93;7.22;;;17.00;99.90;;;;;;5070735;28;20060;-76
2021/09/14 00:42:15;;;;;;;8.60;7.22;;;17.00;99.90;;;;;;5053887;28;20448;-77
2021/09/14 00:44:41;;;;;;;9.93;6.90;;;17.00;99.90;;;;;;5051925;28;20021;-77
2021/09/14 00:47:06;;;;;;;9.60;7.53;;;17.00;99.90;;;;;;5053518;28;20128;-77
2021/09/14 00:49:32;;;;;;;10.45;8.80;;;17.00;99.90;;;;;;5053511;28;20396;-77
2021/09/14 00:51:57;;;;;;;9.10;7.13;;;16.90;99.90;;;;;;5053466;28;20421;-78
2021/09/14 00:54:25;;;;;;;7.97;6.80;;;16.90;99.90;;;;;;5053913;28;20449;-78
2021/09/14 00:56:51;;;;;;;7.57;6.78;;;16.90;99.90;;;;;;5054622;28;20447;-78
2021/09/14 00:59:16;;;;;;;8.10;6.97;;;17.00;99.90;;;;;;5053346;28;20051;-78
2021/09/14 01:01:42;;;;;;;7.28;6.55;;;17.00;99.90;;;;;;5051855;28;20519;-78
2021/09/14 01:04:08;;;;;;;8.32;6.57;;;17.00;99.90;;;;;;5053197;28;20032;-78
2021/09/14 01:06:34;;;;;;;8.43;7.50;;;16.90;99.90;;;;;;5053547;28;20108;-78
2021/09/14 01:09:01;;;;;;;8.18;7.07;;;16.90;99.90;;;;;;5053386;28;20482;-79
2021/09/14 01:11:27;;;;;;;8.73;7.85;;;16.90;99.90;;;;;;5053743;28;20519;-78
2021/09/14 01:14:05;;;;;;;7.97;7.20;;;16.80;99.90;;;;;;5074514;28;20037;-77
2021/09/14 01:16:32;;;;;;;9.52;7.00;;;16.80;99.90;;;;;;5054368;28;20025;-78
2021/09/14 01:18:59;;;;;;;8.05;6.40;;;16.80;99.90;;;;;;5052734;28;20412;-77
2021/09/14 01:21:24;;;;;;;7.70;6.78;;;16.70;99.90;;;;;;5052088;28;20021;-78
2021/09/14 01:23:50;;;;;;;7.28;6.60;;;16.70;99.90;;;;;;5053023;28;20025;-79
2021/09/14 01:26:16;;;;;;;8.48;7.07;;;16.60;99.90;;;;;;5051889;28;20040;-78
2021/09/14 01:28:41;;;;;;;7.55;6.72;;;16.70;99.90;;;;;;5052452;28;20124;-79
2021/09/14 01:31:07;;;;;;;9.25;6.72;;;16.60;99.90;;;;;;5053547;28;20029;-79
2021/09/14 01:33:32;;;;;;;8.10;7.30;;;16.60;99.90;;;;;;5051177;28;20021;-77
2021/09/14 01:35:58;;;;;;;8.98;7.68;;;16.60;99.90;;;;;;5054021;28;20021;-77
2021/09/14 01:38:23;;;;;;;8.93;7.22;;;16.60;99.90;;;;;;5069672;28;20021;-78
2021/09/14 01:40:49;;;;;;;8.30;7.15;;;16.60;99.90;;;;;;5072709;28;20091;-78
2021/09/14 01:43:16;;;;;;;8.13;7.38;;;16.60;99.90;;;;;;5073002;28;20043;-77
2021/09/14 01:45:42;;;;;;;7.03;6.43;;;16.60;99.90;;;;;;5071881;28;20166;-77
2021/09/14 01:48:08;;;;;;;9.85;6.68;;;16.60;99.90;;;;;;5073419;28;20054;-77
2021/09/14 01:50:33;;;;;;;6.85;6.25;;;16.50;99.90;;;;;;5072676;28;20036;-78
2021/09/14 01:53:02;;;;;;;7.03;6.43;;;16.50;99.90;;;;;;5072192;28;20021;-79
2021/09/14 01:55:29;;;;;;;10.00;7.35;;;16.40;99.90;;;;;;5073528;28;20031;-78
2021/09/14 01:57:56;;;;;;;7.28;6.57;;;16.40;99.90;;;;;;5072337;28;20108;-78
2021/09/14 02:00:25;;;;;;;7.18;6.53;;;16.40;99.90;;;;;;5061814;28;20025;-78
2021/09/14 02:30:07;;;;;;;11.00;7.60;;;16.20;99.90;;;;;;5056077;28;20036;-79
2021/09/14 02:59:27;;;;;;;9.02;7.93;;;16.00;99.90;;;;;;5055777;28;20028;-78
2021/09/14 03:01:53;;;;;;;8.00;7.20;;;16.00;99.90;;;;;;5054864;28;20021;-78
2021/09/14 03:04:18;;;;;;;7.60;6.90;;;16.00;99.90;;;;;;5054472;28;20112;-77
2021/09/14 03:06:44;;;;;;;8.48;7.65;;;16.00;99.90;;;;;;5054562;28;20056;-78
2021/09/14 03:09:10;;;;;;;9.02;7.57;;;16.00;99.90;;;;;;5054554;28;20374;-78
2021/09/14 03:11:35;;;;;;;7.65;6.95;;;16.00;99.90;;;;;;5052805;28;20024;-77
2021/09/14 03:14:01;;;;;;;9.30;7.22;;;16.10;99.90;;;;;;5055165;28;20103;-77
2021/09/14 03:16:26;;;;;;;9.52;8.00;;;16.10;99.90;;;;;;5054165;28;20025;-77
2021/09/14 03:18:52;;;;;;;8.75;7.57;;;16.10;99.90;;;;;;5054605;28;20029;-78
2021/09/14 03:21:17;;;;;;;11.00;8.00;;;16.10;99.90;;;;;;5054931;28;20036;-77
2021/09/14 03:23:43;;;;;;;7.88;7.18;;;16.10;99.90;;;;;;5053245;28;20135;-77
2021/09/14 03:26:09;;;;;;;8.48;7.68;;;16.10;99.90;;;;;;5086080;28;20021;-77
2021/09/14 03:28:34;;;;;;;7.95;7.15;;;16.10;99.90;;;;;;5054418;28;20079;-77
2021/09/14 03:31:00;;;;;;;8.55;7.13;;;16.10;99.90;;;;;;5054578;28;20566;-77
2021/09/14 03:33:26;;;;;;;9.15;8.23;;;16.10;99.90;;;;;;5054504;28;20052;-77
2021/09/14 03:35:52;;;;;;;8.48;7.05;;;16.10;99.90;;;;;;5061507;28;20017;-78
2021/09/14 03:38:18;;;;;;;8.18;7.38;;;16.10;99.90;;;;;;5069976;28;20031;-77
2021/09/14 03:40:43;;;;;;;8.40;7.65;;;16.10;99.90;;;;;;5074009;28;20074;-78
2021/09/14 03:43:10;;;;;;;10.43;8.48;;;16.20;99.90;;;;;;5059130;28;20029;-79
2021/09/14 03:45:36;;;;;;;11.80;7.20;;;16.20;99.90;;;;;;5055275;28;20504;-78
2021/09/14 03:48:02;;;;;;;11.82;7.78;;;16.20;99.90;;;;;;5055517;28;20036;-78
2021/09/14 03:50:27;;;;;;;10.85;8.30;;;16.10;99.90;;;;;;5054558;28;20027;-79
2021/09/14 03:52:53;;;;;;;13.20;7.93;;;16.10;99.90;;;;;;5054950;28;20392;-79
2021/09/14 03:55:18;;;;;;;9.85;8.85;;;16.10;99.90;;;;;;5053105;28;20036;-77
2021/09/14 03:57:44;;;;;;;9.82;7.38;;;16.00;99.90;;;;;;5052900;28;20036;-78
2021/09/14 04:00:10;;;;;;;9.60;7.70;;;16.00;99.90;;;;;;5054281;28;20032;-78
2021/09/14 04:02:43;;;;;;;12.43;8.60;;;16.00;99.90;;;;;;5053537;28;20025;-77
2021/09/14 04:10:22;;;;;;;8.65;6.57;;;16.00;99.90;;;;;;5054334;28;20412;-79
2021/09/14 04:12:47;;;;;;;11.88;8.10;;;16.00;99.90;;;;;;5054635;28;20021;-79
2021/09/14 04:15:13;;;;;;;11.20;8.10;;;15.90;99.90;;;;;;5054519;28;20025;-78
2021/09/14 04:17:39;;;;;;;8.05;7.25;;;15.90;99.90;;;;;;5053924;28;20029;-77
2021/09/14 04:20:05;;;;;;;9.18;7.88;;;15.90;99.90;;;;;;5059788;28;20021;-77
2021/09/14 04:22:30;;;;;;;14.48;8.20;;;15.90;99.90;;;;;;5071779;28;20116;-79
2021/09/14 04:24:56;;;;;;;11.32;7.85;;;15.90;99.90;;;;;;5053646;28;20485;-79
2021/09/14 04:27:22;;;;;;;9.60;7.22;;;15.90;99.90;;;;;;5053323;28;20405;-78
2021/09/14 04:29:47;;;;;;;8.25;7.55;;;15.90;99.90;;;;;;5053945;28;20013;-77
2021/09/14 04:32:13;;;;;;;12.70;7.60;;;15.80;99.90;;;;;;5054653;28;20468;-79
2021/09/14 04:34:38;;;;;;;10.95;7.85;;;15.80;99.90;;;;;;5051758;28;20032;-78
2021/09/14 04:37:04;;;;;;;11.93;7.85;;;15.80;99.90;;;;;;5065610;28;20095;-78
2021/09/14 04:39:30;;;;;;;12.63;8.25;;;15.70;99.90;;;;;;5074261;28;20043;-78
2021/09/14 04:41:56;;;;;;;12.15;8.00;;;15.80;99.90;;;;;;5072841;28;20400;-79
2021/09/14 04:44:21;;;;;;;8.32;7.40;;;16.00;99.90;;;;;;5073530;28;20024;-78
2021/09/14 04:46:47;;;;;;;9.80;7.82;;;16.20;99.90;;;;;;5073319;28;20488;-77
2021/09/14 04:49:12;;;;;;;7.88;7.15;;;16.20;99.90;;;;;;5073055;28;20023;-79
2021/09/14 04:51:38;;;;;;;8.90;7.95;;;16.10;99.90;;;;;;5073993;28;20443;-78
2021/09/14 04:54:03;;;;;;;7.75;7.05;;;16.10;99.90;;;;;;5073751;28;20472;-78
2021/09/14 04:56:29;;;;;;;9.25;7.55;;;16.00;99.90;;;;;;5073391;28;20081;-78
2021/09/14 04:58:54;;;;;;;14.00;8.27;;;16.10;99.90;;;;;;5073072;28;20471;-78
2021/09/14 05:01:20;;;;;;;10.30;7.53;;;16.10;99.90;;;;;;5054028;28;20029;-79
2021/09/14 05:03:47;;;;;;;9.73;7.68;;;16.20;99.90;;;;;;5053353;28;20036;-78
2021/09/14 05:06:14;;;;;;;7.95;7.25;;;16.20;99.90;;;;;;5053250;28;20021;-79
2021/09/14 05:08:39;;;;;;;7.97;7.18;;;16.30;99.90;;;;;;5053294;28;20021;-77
2021/09/14 05:11:06;;;;;;;7.85;7.18;;;16.30;99.90;;;;;;5053120;28;20025;-78
2021/09/14 05:13:32;;;;;;;9.38;7.07;;;16.40;99.90;;;;;;5053585;28;20025;-78
2021/09/14 05:15:58;;;;;;;8.77;6.72;;;16.30;99.90;;;;;;5053981;28;20021;-79
2021/09/14 05:18:24;;;;;;;11.60;7.00;;;16.50;99.90;;;;;;5054464;28;20559;-77
2021/09/14 05:20:51;;;;;;;8.88;7.22;;;16.60;99.90;;;;;;5052784;28;20029;-78
2021/09/14 05:23:30;;;;;;;8.27;6.82;;;16.70;99.90;;;;;;5054051;28;20028;-78
2021/09/14 05:25:58;;;;;;;7.30;6.55;;;16.70;99.90;;;;;;5054173;28;20074;-78
2021/09/14 05:28:24;;;;;;;13.23;7.68;;;16.70;99.90;;;;;;5053385;28;20036;-78
2021/09/14 05:30:50;;;;;;;10.57;8.25;;;16.60;99.90;;;;;;5053515;28;20021;-78
2021/09/14 05:33:16;;;;;;;14.82;6.78;;;16.60;99.90;;;;;;5054048;28;20032;-79
2021/09/14 05:35:50;;;;;;;9.05;7.15;;;16.60;99.90;;;;;;5060217;28;20024;-78
2021/09/14 05:38:17;;;;;;;9.48;6.68;;;16.70;99.90;;;;;;5069625;28;20470;-78
2021/09/14 05:40:44;;;;;;;7.57;6.88;;;16.90;99.90;;;;;;5071024;28;20119;-79
2021/09/14 05:43:10;;;;;;;10.15;7.82;;;16.90;99.90;;;;;;5073563;28;20032;-78
2021/09/14 05:45:36;;;;;;;8.70;7.60;;;17.00;99.90;;;;;;5073184;28;20025;-78
2021/09/14 05:48:01;;;;;;;11.27;7.15;;;17.10;99.90;;;;;;5073446;28;20108;-79
2021/09/14 05:50:28;;;;;;;7.47;6.78;;;17.20;99.90;;;;;;5077184;28;20503;-79
2021/09/14 05:52:53;;;;;;;13.25;7.82;;;17.30;99.90;;;;;;5077130;28;20444;-78
2021/09/14 05:55:19;;;;;;;11.32;7.97;;;17.30;99.90;;;;;;5075065;28;20024;-78
2021/09/14 05:57:45;;;;;;;10.25;7.38;;;17.40;99.90;;;;;;5076325;28;20490;-78
2021/09/14 06:00:11;;;;;;;10.32;7.43;;;17.40;99.90;;;;;;5067726;28;20082;-78
2021/09/14 06:02:37;;;;;;;10.75;7.43;;;17.40;99.90;;;;;;5056174;28;20079;-78
2021/09/14 06:05:04;;;;;;;9.10;7.45;;;17.50;99.90;;;;;;5088872;28;20120;-77
2021/09/14 06:07:29;;;;;;;8.70;7.80;;;17.60;99.90;;;;;;5056203;28;20438;-77
2021/09/14 06:09:55;;;;;;;7.85;7.05;;;17.80;99.90;;;;;;5056426;28;20155;-78
2021/09/14 06:12:21;;;;;;;8.48;6.78;;;17.90;99.90;;;;;;5056091;28;20048;-78
2021/09/14 06:14:47;;;;;;;12.50;7.35;;;18.00;99.90;;;;;;5055468;28;20029;-78
2021/09/14 06:17:12;;;;;;;11.10;7.25;;;17.90;99.90;;;;;;5056037;28;20032;-79
2021/09/14 06:19:38;;;;;;;10.35;6.28;;;18.00;99.90;;;;;;5055742;28;20021;-78
2021/09/14 06:22:04;;;;;;;9.57;7.00;;;18.10;99.90;;;;;;5054874;28;20031;-79
2021/09/14 06:24:30;;;;;;;9.45;6.20;;;18.20;99.90;;;;;;5054692;28;20083;-77
2021/09/14 06:26:56;;;;;;;8.40;7.47;;;18.30;99.90;;;;;;5055412;28;20041;-77
2021/09/14 06:29:22;;;;;;;7.32;6.15;;;18.20;99.90;;;;;;5055173;28;20048;-79
2021/09/14 06:31:47;;;;;;;10.70;6.35;;;18.40;99.90;;;;;;5056870;28;20029;-78
2021/09/14 06:34:13;;;;;;;14.77;7.03;;;18.60;99.90;;;;;;5051102;28;20457;-78
2021/09/14 06:36:38;;;;;;;7.18;6.47;;;18.70;99.90;;;;;;5057669;28;20075;-79
2021/09/14 06:39:04;;;;;;;9.60;6.90;;;18.70;99.90;;;;;;5061345;28;20025;-77
2021/09/14 06:41:30;;;;;;;9.27;6.57;;;18.70;99.90;;;;;;5055657;28;20167;-75
2021/09/14 06:43:56;;;;;;;7.60;6.80;;;18.70;99.90;;;;;;5053925;28;20481;-76
2021/09/14 06:46:23;;;;;;;10.50;7.03;;;18.70;99.90;;;;;;5054516;28;20029;-75
2021/09/14 06:48:48;;;;;;;11.23;7.47;;;18.70;99.90;;;;;;5054149;28;20013;-76
2021/09/14 06:51:14;;;;;;;9.73;6.75;;;18.90;99.90;;;;;;5052715;28;20031;-76
2021/09/14 06:53:40;;;;;;;10.32;7.03;;;19.00;99.90;;;;;;5053931;28;20074;-75
2021/09/14 06:56:07;;;;;;;7.80;7.07;;;19.10;99.90;;;;;;5052636;28;20028;-76
2021/09/14 06:58:32;;;;;;;11.02;8.50;;;19.20;99.90;;;;;;5053585;28;20362;-75
2021/09/14 07:00:58;;;;;;;9.32;7.43;;;19.20;99.90;;;;;;5052925;28;20083;-75
2021/09/14 07:03:24;;;;;;;9.60;7.32;;;19.30;99.90;;;;;;5052713;28;20071;-76
2021/09/14 07:05:49;;;;;;;11.13;6.72;;;19.40;99.90;;;;;;5053872;28;20459;-74
2021/09/14 07:08:15;;;;;;;7.13;6.30;;;19.50;99.90;;;;;;5061797;28;20020;-77
2021/09/14 07:10:40;;;;;;;11.77;6.82;;;19.60;99.90;;;;;;5064138;28;20021;-76
2021/09/14 07:13:06;;;;;;;10.05;7.57;;;19.60;99.90;;;;;;5072205;28;20365;-76
2021/09/14 07:15:32;;;;;;;10.27;7.30;;;19.60;99.90;;;;;;5073511;28;20024;-77
2021/09/14 07:17:58;;;;;;;8.32;6.70;;;19.50;99.90;;;;;;5073562;28;20025;-76
2021/09/14 07:20:23;;;;;;;9.55;7.22;;;19.60;99.90;;;;;;5073185;28;20024;-76
2021/09/14 07:22:49;;;;;;;9.18;7.13;;;19.70;99.90;;;;;;5073844;28;20036;-76
2021/09/14 07:25:15;;;;;;;8.65;6.68;;;19.70;99.90;;;;;;5073485;28;20029;-77
2021/09/14 07:27:40;;;;;;;7.40;6.70;;;19.50;99.90;;;;;;5073280;28;20032;-76
2021/09/14 07:30:07;;;;;;;10.90;8.25;;;19.70;99.90;;;;;;5071860;28;20040;-76
2021/09/14 07:32:32;;;;;;;8.32;6.88;;;19.90;99.90;;;;;;5072118;28;20027;-76
2021/09/14 07:34:58;;;;;;;9.10;6.85;;;20.00;99.90;;;;;;5073043;28;20395;-76
2021/09/14 07:37:24;;;;;;;9.88;7.18;;;20.10;99.90;;;;;;5073478;28;20094;-76
2021/09/14 07:39:49;;;;;;;11.93;8.07;;;20.20;99.90;;;;;;5071451;28;20111;-76
2021/09/14 07:42:15;;;;;;;8.40;5.65;;;20.30;99.90;;;;;;5073288;28;20032;-76
2021/09/14 07:44:41;;;;;;;10.52;6.68;;;20.30;99.90;;;;;;5071858;28;20020;-76
2021/09/14 07:47:06;;;;;;;11.55;6.55;;;20.30;99.90;;;;;;5072861;28;20472;-75
2021/09/14 07:49:32;;;;;;;7.57;6.78;;;20.40;99.90;;;;;;5073158;28;20028;-76
2021/09/14 07:51:57;;;;;;;12.40;7.80;;;20.40;99.90;;;;;;5071362;28;20107;-77
2021/09/14 07:54:23;;;;;;;8.98;6.75;;;20.60;99.90;;;;;;5072930;28;20391;-76
2021/09/14 07:56:49;;;;;;;15.70;8.25;;;20.70;99.90;;;;;;5072759;28;20488;-76
2021/09/14 07:59:15;;;;;;;7.57;6.65;;;20.80;99.90;;;;;;5071271;28;20519;-76
2021/09/14 08:01:40;;;;;;;7.63;6.93;;;20.90;99.90;;;;;;5052674;28;20040;-77
2021/09/14 08:04:06;;;;;;;7.70;5.95;;;21.10;99.90;;;;;;5051398;28;20029;-76
2021/09/14 08:06:32;;;;;;;6.70;6.10;;;21.20;99.90;;;;;;5051406;28;20021;-76
2021/09/14 08:08:58;;;;;;;6.13;5.40;;;21.40;99.90;;;;;;5051910;28;20499;-75
2021/09/14 08:11:23;;;;;;;9.27;6.10;;;21.30;99.90;;;;;;5052565;28;20032;-75
2021/09/14 08:13:51;;;;;;;8.25;5.40;;;21.40;99.90;;;;;;5052816;28;20036;-75
2021/09/14 08:16:17;;;;;;;5.85;5.28;;;21.50;99.90;;;;;;5052165;28;20020;-76
2021/09/14 08:18:42;;;;;;;7.38;4.93;;;21.70;99.90;;;;;;5052801;28;20374;-76
2021/09/14 08:21:08;;;;;;;11.80;5.65;;;21.60;99.90;;;;;;5052872;28;20100;-76
2021/09/14 08:23:34;;;;;;;8.65;5.65;;;21.60;99.90;;;;;;5051286;28;20021;-75
2021/09/14 08:26:01;;;;;;;8.70;5.30;;;21.90;99.90;;;;;;5051109;28;20037;-76
2021/09/14 08:28:26;;;;;;;7.03;4.28;;;22.00;99.90;;;;;;5052093;28;20082;-76
2021/09/14 08:30:52;;;;;;;10.65;5.65;;;22.10;99.90;;;;;;5052555;28;20021;-76
2021/09/14 08:33:18;;;;;;;7.85;5.80;;;22.50;99.90;;;;;;5053836;28;20021;-76
2021/09/14 08:35:44;;;;;;;7.28;6.45;;;22.70;99.90;;;;;;5053763;28;20028;-77
2021/09/14 08:38:12;;;;;;;7.68;5.85;;;22.80;99.90;;;;;;5053202;28;20025;-75
2021/09/14 08:40:40;;;;;;;8.40;6.03;;;22.70;99.90;;;;;;5053696;28;20029;-76
2021/09/14 08:43:10;;;;;;;12.82;5.68;;;22.70;99.90;;;;;;5053014;28;20033;-76
2021/09/14 08:45:35;;;;;;;7.40;5.90;;;22.70;99.90;;;;;;5054005;28;20049;-75
2021/09/14 08:48:02;;;;;;;10.75;5.47;;;22.60;99.90;;;;;;5051050;28;20059;-75
2021/09/14 08:50:28;;;;;;;11.57;6.57;;;22.70;99.90;;;;;;5050968;28;20021;-76
2021/09/14 08:52:53;;;;;;;5.63;4.90;;;22.80;99.90;;;;;;5050836;28;20079;-76
2021/09/14 08:55:21;;;;;;;8.80;6.05;;;23.00;99.90;;;;;;5050965;28;20438;-76
2021/09/14 08:57:54;;;;;;;7.25;5.38;;;23.20;99.90;;;;;;5052560;28;20071;-75
2021/09/14 09:00:43;;;;;;;8.15;5.00;;;23.20;99.90;;;;;;5050460;28;20040;-76
2021/09/14 09:03:12;;;;;;;9.90;5.20;;;23.40;99.90;;;;;;5052063;28;20059;-75
2021/09/14 09:05:39;;;;;;;18.02;6.32;;;23.50;99.90;;;;;;5050575;28;20099;-77
2021/09/14 09:08:22;;;;;;;10.38;6.03;;;23.60;99.90;;;;;;5051377;28;20048;-77
2021/09/14 09:11:08;;;;;;;7.10;5.03;;;23.60;99.90;;;;;;5052018;28;20055;-76
2021/09/14 09:13:43;;;;;;;5.80;4.70;;;23.80;99.90;;;;;;5052064;28;20382;-76
2021/09/14 09:16:20;;;;;;;7.43;4.97;;;23.90;99.90;;;;;;5052634;28;20021;-77
2021/09/14 09:18:51;;;;;;;7.82;4.82;;;24.00;99.90;;;;;;5083775;28;20040;-77
2021/09/14 09:21:17;;;;;;;5.88;4.65;;;24.00;99.90;;;;;;5052281;28;20029;-76
2021/09/14 09:23:43;;;;;;;8.77;4.75;;;24.10;99.90;;;;;;5053585;28;20389;-76
2021/09/14 09:26:09;;;;;;;10.73;4.35;;;24.20;99.90;;;;;;5055143;28;20037;-77
2021/09/14 09:28:35;;;;;;;9.43;5.00;;;24.30;99.90;;;;;;5055938;28;20063;-76
2021/09/14 09:31:08;;;;;;;5.13;4.72;;;24.40;99.90;;;;;;5056228;28;20046;-75
2021/09/14 09:33:34;;;;;;;7.72;4.95;;;24.50;99.90;;;;;;5055738;28;20021;-77
2021/09/14 09:36:08;;;;;;;7.70;4.20;;;24.60;99.90;;;;;;5056411;28;20029;-77
2021/09/14 09:38:48;;;;;;;4.70;4.13;;;24.80;99.90;;;;;;5057032;28;20028;-77
2021/09/14 09:41:23;;;;;;;8.00;4.50;;;25.00;99.90;;;;;;5056461;28;20048;-76
2021/09/14 09:43:48;;;;;;;5.28;4.38;;;25.10;99.90;;;;;;5056777;28;20520;-76
2021/09/14 09:46:19;;;;;;;5.70;3.72;;;25.20;99.90;;;;;;5056718;28;20029;-77
2021/09/14 09:48:46;;;;;;;7.90;4.00;;;25.30;99.90;;;;;;5055717;28;20495;-76
2021/09/14 09:51:11;;;;;;;7.93;3.70;;;25.40;99.90;;;;;;5056271;28;20033;-76
2021/09/14 09:53:38;;;;;;;4.70;3.83;;;25.40;99.90;;;;;;5054502;28;20017;-77
2021/09/14 09:56:06;;;;;;;4.80;4.00;;;25.80;99.90;;;;;;5054315;28;20024;-77
2021/09/14 09:58:32;;;;;;;5.32;3.92;;;25.80;99.90;;;;;;5054598;28;20029;-76
2021/09/14 10:01:11;;;;;;;8.32;4.78;;;26.10;99.90;;;;;;5055436;28;20028;-76
2021/09/14 10:03:45;;;;;;;4.00;3.60;;;26.20;99.90;;;;;;5056560;28;20029;-76
2021/09/14 10:06:13;;;;;;;4.32;3.92;;;26.40;99.90;;;;;;5056207;28;20343;-77
2021/09/14 10:08:39;;;;;;;4.53;3.58;;;26.30;99.90;;;;;;5055144;28;20024;-75
2021/09/14 10:11:05;;;;;;;3.88;3.55;;;26.40;99.90;;;;;;5056265;28;20031;-76
2021/09/14 10:13:36;;;;;;;4.50;4.07;;;26.50;99.90;;;;;;5055765;28;20029;-76
2021/09/14 10:16:02;;;;;;;4.50;4.07;;;26.20;99.90;;;;;;5054469;28;20032;-76
2021/09/14 10:18:30;;;;;;;5.45;3.30;;;26.50;99.90;;;;;;5054716;28;20037;-76
2021/09/14 10:20:56;;;;;;;7.25;4.10;;;26.60;99.90;;;;;;5066442;28;20056;-75
2021/09/14 10:23:24;;;;;;;5.85;3.83;;;26.80;99.90;;;;;;5064087;28;20025;-76
2021/09/14 10:26:05;;;;;;;5.13;3.10;;;26.90;99.90;;;;;;5065919;28;20021;-76
2021/09/14 10:28:44;;;;;;;4.50;3.58;;;27.00;99.90;;;;;;5084402;28;20043;-76
2021/09/14 10:31:27;;;;;;;4.28;3.65;;;26.70;99.90;;;;;;5083562;28;20029;-76
2021/09/14 10:34:06;;;;;;;4.85;3.97;;;26.70;99.90;;;;;;5082116;28;20353;-77
2021/09/14 10:36:34;;;;;;;5.53;3.75;;;26.90;99.90;;;;;;5075375;28;20039;-76
2021/09/14 10:39:00;;;;;;;3.75;3.45;;;27.30;99.90;;;;;;5074988;28;20187;-76
2021/09/14 10:41:40;;;;;;;3.53;3.22;;;27.10;99.90;;;;;;5076049;28;20052;-77
2021/09/14 10:44:10;;;;;;;5.20;3.50;;;26.80;99.90;;;;;;5090120;28;20024;-77
2021/09/14 10:46:36;;;;;;;4.70;3.83;;;26.60;99.90;;;;;;5096678;28;20024;-76
2021/09/14 10:49:22;;;;;;;3.90;3.60;;;26.50;99.90;;;;;;5098204;28;20004;-76
2021/09/14 10:51:55;;;;;;;4.53;3.65;;;26.50;99.90;;;;;;5097844;28;20033;-77
2021/09/14 10:54:21;;;;;;;3.10;2.90;;;26.50;99.90;;;;;;5098070;28;20486;-77
2021/09/14 10:56:49;;;;;;;4.07;3.67;;;26.90;99.90;;;;;;5097827;28;20040;-76
2021/09/14 10:59:18;;;;;;;3.40;3.10;;;27.10;99.90;;;;;;5095914;28;20017;-76
2021/09/14 11:01:46;;;;;;;4.35;3.80;;;27.20;99.90;;;;;;5078866;28;20032;-76
2021/09/14 11:04:12;;;;;;;4.32;3.92;;;27.10;99.90;;;;;;5077606;28;20025;-76
2021/09/14 11:06:37;;;;;;;4.20;3.38;;;27.50;99.90;;;;;;5077407;28;20021;-76
2021/09/14 11:09:05;;;;;;;7.78;3.83;;;27.60;99.90;;;;;;5077661;28;20037;-76
2021/09/14 11:11:31;;;;;;;4.13;3.17;;;27.50;99.90;;;;;;5070055;28;20333;-76
2021/09/14 11:13:57;;;;;;;3.95;3.50;;;27.70;99.90;;;;;;5056825;28;20048;-76
2021/09/14 11:16:22;;;;;;;3.40;3.05;;;27.50;99.90;;;;;;5055575;28;20036;-76
2021/09/14 11:18:48;;;;;;;5.93;3.67;;;27.30;99.90;;;;;;5055921;28;20021;-76
2021/09/14 11:21:16;;;;;;;3.60;3.30;;;27.10;99.90;;;;;;5057694;28;20017;-77
2021/09/14 11:23:44;;;;;;;3.28;3.05;;;26.90;99.90;;;;;;5062945;28;20482;-76
2021/09/14 11:26:12;;;;;;;3.80;3.20;;;27.30;99.90;;;;;;5075497;28;20017;-76
2021/09/14 11:28:39;;;;;;;4.53;3.20;;;27.60;99.90;;;;;;5077187;28;20059;-76
2021/09/14 11:31:09;;;;;;;3.90;3.28;;;27.90;99.90;;;;;;5077176;28;20044;-76
2021/09/14 11:33:39;;;;;;;4.07;3.17;;;27.60;99.90;;;;;;5077137;28;20005;-76
2021/09/14 11:36:07;;;;;;;3.92;3.00;;;27.90;99.90;;;;;;5076619;28;20025;-76
2021/09/14 11:38:33;;;;;;;3.67;3.00;;;28.10;99.90;;;;;;5076870;28;20052;-76
2021/09/14 11:41:01;;;;;;;5.72;4.20;;;28.10;99.90;;;;;;5077455;28;20041;-76
2021/09/14 11:43:33;;;;;;;4.30;2.97;;;28.00;99.90;;;;;;5076511;28;20031;-76
2021/09/14 11:46:00;;;;;;;3.47;3.10;;;28.20;99.90;;;;;;5061255;28;20029;-75
2021/09/14 11:48:29;;;;;;;4.53;3.33;;;28.10;99.90;;;;;;5067274;28;20017;-76
2021/09/14 11:51:03;;;;;;;3.35;3.10;;;27.70;99.90;;;;;;5059690;28;20104;-76
2021/09/14 11:53:29;;;;;;;3.95;3.55;;;27.50;99.90;;;;;;5057064;28;20071;-76
2021/09/14 11:55:55;;;;;;;6.40;3.35;;;27.30;99.90;;;;;;5055264;28;20048;-75
2021/09/14 11:58:35;;;;;;;3.92;3.55;;;27.50;99.90;;;;;;5055152;28;20075;-76
2021/09/14 12:01:08;;;;;;;4.60;4.20;;;27.10;99.90;;;;;;5052706;28;20079;-76
2021/09/14 12:03:52;;;;;;;4.53;4.13;;;27.30;99.90;;;;;;5052980;28;20021;-77
2021/09/14 12:06:28;;;;;;;6.28;4.25;;;27.00;99.90;;;;;;5055512;28;20025;-76
2021/09/14 12:08:59;;;;;;;6.40;4.75;;;26.70;99.90;;;;;;5053145;28;20017;-76
2021/09/14 12:11:32;;;;;;;5.85;4.03;;;26.50;99.90;;;;;;5054729;28;20021;-77
2021/09/14 12:14:00;;;;;;;5.85;3.85;;;26.40;99.90;;;;;;5052825;28;20025;-76
2021/09/14 12:16:28;;;;;;;4.63;4.00;;;26.30;99.90;;;;;;5054510;28;20017;-77
2021/09/14 12:18:57;;;;;;;7.32;4.47;;;26.20;99.90;;;;;;5052043;28;20021;-76
2021/09/14 12:21:23;;;;;;;7.40;4.78;;;26.00;99.90;;;;;;5067999;28;20032;-76
2021/09/14 12:23:50;;;;;;;3.72;3.42;;;26.00;99.90;;;;;;5073234;28;20025;-76
2021/09/14 12:26:23;;;;;;;8.82;4.38;;;26.00;99.90;;;;;;5071645;28;20369;-76
2021/09/14 12:28:51;;;;;;;5.10;3.45;;;26.00;99.90;;;;;;5075311;28;20025;-76
2021/09/14 12:31:18;;;;;;;6.03;4.03;;;26.10;99.90;;;;;;5071902;28;20491;-76
2021/09/14 12:33:44;;;;;;;3.88;3.58;;;26.20;99.90;;;;;;5074910;28;20093;-78
2021/09/14 12:36:10;;;;;;;6.45;3.95;;;26.40;99.90;;;;;;5072251;28;20555;-76
2021/09/14 12:38:36;;;;;;;5.53;3.90;;;26.30;99.90;;;;;;5074258;28;20050;-77
2021/09/14 12:41:02;;;;;;;5.15;3.88;;;26.40;99.90;;;;;;5073501;28;20084;-76
2021/09/14 12:43:27;;;;;;;4.28;3.88;;;26.40;99.90;;;;;;5073520;28;20029;-76
2021/09/14 12:45:53;;;;;;;5.15;4.03;;;26.70;99.90;;;;;;5073154;28;20033;-76
2021/09/14 12:48:18;;;;;;;4.25;3.83;;;27.20;99.90;;;;;;5072384;28;20024;-77
2021/09/14 12:50:44;;;;;;;6.30;3.60;;;27.50;99.90;;;;;;5073928;28;20025;-76
2021/09/14 12:53:09;;;;;;;6.25;4.25;;;27.80;99.90;;;;;;5072857;28;20025;-76
2021/09/14 12:55:37;;;;;;;4.40;3.25;;;28.00;99.90;;;;;;5071550;28;20024;-75
2021/09/14 12:58:04;;;;;;;6.32;3.50;;;27.90;99.90;;;;;;5072323;28;20565;-76
2021/09/14 13:00:30;;;;;;;4.20;3.80;;;28.10;99.90;;;;;;5060435;28;20032;-76
2021/09/14 13:02:56;;;;;;;5.35;3.90;;;27.70;99.90;;;;;;5052101;28;20025;-77
2021/09/14 13:05:24;;;;;;;4.32;3.45;;;28.10;99.90;;;;;;5052187;28;20351;-76
2021/09/14 13:07:50;;;;;;;6.70;3.80;;;28.00;99.80;;;;;;5052276;28;20029;-76
2021/09/14 13:10:15;;;;;;;5.63;3.90;;;27.60;99.90;;;;;;5051292;28;20150;-76
2021/09/14 13:12:49;;;;;;;4.20;3.65;;;28.10;99.70;;;;;;5052649;28;20427;-77
2021/09/14 13:18:02;;;;;;;6.28;3.13;;;27.80;99.90;;;;;;5052488;28;20510;-76
2021/09/14 13:20:28;;;;;;;4.90;3.63;;;28.30;99.90;;;;;;5052147;28;20112;-77
2021/09/14 13:22:55;;;;;;;3.90;3.50;;;28.40;99.30;;;;;;5051780;28;20472;-76
2021/09/14 13:25:23;;;;;;;5.22;3.50;;;28.70;98.70;;;;;;5052128;28;20029;-76
2021/09/14 13:27:49;;;;;;;4.18;3.60;;;28.80;98.70;;;;;;5051780;28;20509;-77
2021/09/14 13:30:15;;;;;;;5.85;3.80;;;28.40;99.10;;;;;;5051529;28;20096;-76
2021/09/14 13:32:40;;;;;;;4.45;3.88;;;28.20;99.20;;;;;;5050392;28;20032;-77
2021/09/14 13:35:09;;;;;;;4.40;3.35;;;27.90;99.20;;;;;;5052718;28;20096;-76
2021/09/14 13:37:35;;;;;;;4.70;3.92;;;27.70;99.50;;;;;;5053234;28;20136;-77
2021/09/14 13:40:00;;;;;;;4.53;3.97;;;28.00;99.30;;;;;;5073867;28;20017;-76
2021/09/14 13:42:26;;;;;;;4.38;3.97;;;28.30;98.80;;;;;;5060921;28;20060;-76
2021/09/14 13:47:20;;;;;;;4.68;3.90;;;28.70;98.90;;;;;;5051882;28;20021;-76
2021/09/14 13:49:46;;;;;;;7.93;4.18;;;28.40;99.10;;;;;;5050211;28;20412;-76